sensor_id;sensor_type;location;lat;lon;timestamp;pressure;altitude;pressure_sealevel;temperature;humidity
71149;BME280;59072;42.144;25.200;2022-10-31T00:00:16;100365.84;;;11.30;62.55
71149;BME280;59072;42.144;25.200;2022-10-31T00:02:42;100349.56;;;11.38;62.07
71149;BME280;59072;42.144;25.200;2022-10-31T00:05:07;100333.38;;;10.69;63.13
71149;BME280;59072;42.144;25.200;2022-10-31T00:07:33;100342.88;;;10.97;62.29
71149;BME280;59072;42.144;25.200;2022-10-31T00:09:58;100351.91;;;11.27;61.83
71149;BME280;59072;42.144;25.200;2022-10-31T00:12:24;100325.03;;;10.59;64.11
71149;BME280;59072;42.144;25.200;2022-10-31T00:14:49;100340.09;;;10.78;63.37
71149;BME280;59072;42.144;25.200;2022-10-31T00:17:15;100324.03;;;10.92;61.82
71149;BME280;59072;42.144;25.200;2022-10-31T00:19:40;100342.63;;;11.05;60.79
71149;BME280;59072;42.144;25.200;2022-10-31T00:22:05;100338.03;;;10.87;62.16
71149;BME280;59072;42.144;25.200;2022-10-31T00:24:31;100336.69;;;11.03;61.56
71149;BME280;59072;42.144;25.200;2022-10-31T00:26:56;100329.72;;;11.02;61.06
71149;BME280;59072;42.144;25.200;2022-10-31T00:29:21;100325.44;;;10.94;61.34
71149;BME280;59072;42.144;25.200;2022-10-31T00:31:47;100343.47;;;10.67;62.54
71149;BME280;59072;42.144;25.200;2022-10-31T00:34:12;100342.56;;;10.80;62.07
71149;BME280;59072;42.144;25.200;2022-10-31T00:36:38;100326.16;;;10.76;61.62
71149;BME280;59072;42.144;25.200;2022-10-31T00:39:03;100335.47;;;10.99;61.42
71149;BME280;59072;42.144;25.200;2022-10-31T00:41:28;100317.28;;;10.51;62.75
71149;BME280;59072;42.144;25.200;2022-10-31T00:43:54;100336.63;;;10.13;64.66
71149;BME280;59072;42.144;25.200;2022-10-31T00:46:20;100333.09;;;10.39;63.40
71149;BME280;59072;42.144;25.200;2022-10-31T00:48:45;100310.72;;;10.40;63.10
71149;BME280;59072;42.144;25.200;2022-10-31T00:51:11;100327.91;;;10.57;63.07
71149;BME280;59072;42.144;25.200;2022-10-31T00:53:36;100325.00;;;10.65;62.54
71149;BME280;59072;42.144;25.200;2022-10-31T00:56:02;100332.81;;;10.60;62.73
71149;BME280;59072;42.144;25.200;2022-10-31T00:58:28;100327.25;;;10.62;62.39
71149;BME280;59072;42.144;25.200;2022-10-31T01:00:53;100335.59;;;10.79;62.26
71149;BME280;59072;42.144;25.200;2022-10-31T01:03:28;100345.84;;;10.82;62.81
71149;BME280;59072;42.144;25.200;2022-10-31T01:06:00;100324.53;;;10.75;62.75
71149;BME280;59072;42.144;25.200;2022-10-31T01:08:26;100316.94;;;10.79;62.43
71149;BME280;59072;42.144;25.200;2022-10-31T01:13:29;100328.13;;;10.94;62.29
71149;BME280;59072;42.144;25.200;2022-10-31T01:15:56;100315.50;;;10.76;62.71
71149;BME280;59072;42.144;25.200;2022-10-31T01:18:22;100326.66;;;10.60;63.80
71149;BME280;59072;42.144;25.200;2022-10-31T01:20:57;100298.38;;;10.59;63.98
71149;BME280;59072;42.144;25.200;2022-10-31T01:23:23;100323.00;;;10.48;65.67
71149;BME280;59072;42.144;25.200;2022-10-31T01:25:48;100314.25;;;10.34;65.09
71149;BME280;59072;42.144;25.200;2022-10-31T01:28:13;100319.84;;;10.12;65.61
71149;BME280;59072;42.144;25.200;2022-10-31T01:30:39;100331.66;;;10.43;64.73
71149;BME280;59072;42.144;25.200;2022-10-31T01:33:04;100314.88;;;10.22;65.31
71149;BME280;59072;42.144;25.200;2022-10-31T01:35:29;100308.91;;;10.34;65.05
71149;BME280;59072;42.144;25.200;2022-10-31T01:37:55;100317.69;;;10.48;65.73
71149;BME280;59072;42.144;25.200;2022-10-31T01:40:20;100307.88;;;10.41;65.76
71149;BME280;59072;42.144;25.200;2022-10-31T01:42:46;100317.13;;;10.77;64.45
71149;BME280;59072;42.144;25.200;2022-10-31T01:45:13;100312.31;;;10.93;64.42
71149;BME280;59072;42.144;25.200;2022-10-31T01:47:43;100322.59;;;11.21;63.84
71149;BME280;59072;42.144;25.200;2022-10-31T01:50:28;100305.84;;;11.39;63.09
71149;BME280;59072;42.144;25.200;2022-10-31T01:52:57;100315.72;;;11.32;63.08
71149;BME280;59072;42.144;25.200;2022-10-31T01:55:27;100318.94;;;10.83;64.82
71149;BME280;59072;42.144;25.200;2022-10-31T01:57:55;100299.94;;;10.73;64.78
71149;BME280;59072;42.144;25.200;2022-10-31T02:00:22;100312.34;;;10.86;65.55
71149;BME280;59072;42.144;25.200;2022-10-31T02:02:49;100313.78;;;10.89;66.33
71149;BME280;59072;42.144;25.200;2022-10-31T02:05:24;100316.44;;;10.89;65.42
71149;BME280;59072;42.144;25.200;2022-10-31T02:10:16;100325.47;;;11.19;64.99
71149;BME280;59072;42.144;25.200;2022-10-31T02:12:42;100323.75;;;11.32;64.32
71149;BME280;59072;42.144;25.200;2022-10-31T02:15:08;100308.56;;;11.32;64.01
71149;BME280;59072;42.144;25.200;2022-10-31T02:17:34;100322.13;;;10.99;65.42
71149;BME280;59072;42.144;25.200;2022-10-31T02:20:13;100328.22;;;10.74;67.30
71149;BME280;59072;42.144;25.200;2022-10-31T02:23:04;100324.94;;;10.72;67.38
71149;BME280;59072;42.144;25.200;2022-10-31T02:31:46;100318.59;;;11.05;64.47
71149;BME280;59072;42.144;25.200;2022-10-31T02:39:36;100343.75;;;11.22;64.01
71149;BME280;59072;42.144;25.200;2022-10-31T02:42:16;100343.00;;;11.40;63.06
71149;BME280;59072;42.144;25.200;2022-10-31T02:45:12;100353.34;;;11.30;62.78
71149;BME280;59072;42.144;25.200;2022-10-31T02:47:38;100356.56;;;11.39;62.13
71149;BME280;59072;42.144;25.200;2022-10-31T02:50:11;100356.19;;;11.03;63.62
71149;BME280;59072;42.144;25.200;2022-10-31T02:52:37;100361.50;;;11.10;63.31
71149;BME280;59072;42.144;25.200;2022-10-31T02:57:58;100353.13;;;11.00;63.01
71149;BME280;59072;42.144;25.200;2022-10-31T03:00:26;100353.38;;;10.92;64.36
71149;BME280;59072;42.144;25.200;2022-10-31T03:02:55;100364.56;;;11.07;63.79
71149;BME280;59072;42.144;25.200;2022-10-31T03:11:08;100365.41;;;11.08;64.26
71149;BME280;59072;42.144;25.200;2022-10-31T03:13:48;100375.53;;;11.31;63.10
71149;BME280;59072;42.144;25.200;2022-10-31T03:19:16;100347.06;;;11.18;63.64
71149;BME280;59072;42.144;25.200;2022-10-31T03:21:44;100373.53;;;11.19;64.16
71149;BME280;59072;42.144;25.200;2022-10-31T03:24:12;100360.09;;;11.33;63.47
71149;BME280;59072;42.144;25.200;2022-10-31T03:26:43;100358.50;;;11.50;62.60
71149;BME280;59072;42.144;25.200;2022-10-31T03:29:13;100365.88;;;11.80;62.08
71149;BME280;59072;42.144;25.200;2022-10-31T03:31:55;100365.00;;;11.86;61.06
71149;BME280;59072;42.144;25.200;2022-10-31T03:34:22;100356.03;;;11.55;61.89
71149;BME280;59072;42.144;25.200;2022-10-31T03:36:50;100356.28;;;11.72;62.38
71149;BME280;59072;42.144;25.200;2022-10-31T03:39:19;100370.94;;;11.88;62.18
71149;BME280;59072;42.144;25.200;2022-10-31T03:41:59;100372.81;;;11.88;62.13
71149;BME280;59072;42.144;25.200;2022-10-31T03:44:29;100378.38;;;11.86;62.39
71149;BME280;59072;42.144;25.200;2022-10-31T03:46:55;100380.53;;;11.71;62.44
71149;BME280;59072;42.144;25.200;2022-10-31T03:49:21;100383.81;;;11.73;62.25
71149;BME280;59072;42.144;25.200;2022-10-31T03:54:25;100395.63;;;11.90;62.11
71149;BME280;59072;42.144;25.200;2022-10-31T03:56:53;100391.88;;;11.41;63.49
71149;BME280;59072;42.144;25.200;2022-10-31T03:59:24;100392.41;;;11.24;64.86
71149;BME280;59072;42.144;25.200;2022-10-31T04:01:55;100395.13;;;11.18;65.04
71149;BME280;59072;42.144;25.200;2022-10-31T04:04:21;100381.28;;;11.27;64.89
71149;BME280;59072;42.144;25.200;2022-10-31T04:06:48;100394.09;;;11.44;64.39
71149;BME280;59072;42.144;25.200;2022-10-31T04:09:16;100383.69;;;11.36;63.49
71149;BME280;59072;42.144;25.200;2022-10-31T04:11:50;100390.22;;;11.46;62.52
71149;BME280;59072;42.144;25.200;2022-10-31T04:14:17;100407.59;;;11.81;61.38
71149;BME280;59072;42.144;25.200;2022-10-31T04:16:43;100396.31;;;11.54;62.55
71149;BME280;59072;42.144;25.200;2022-10-31T04:19:10;100393.56;;;11.60;62.05
71149;BME280;59072;42.144;25.200;2022-10-31T04:21:36;100386.34;;;11.68;61.49
71149;BME280;59072;42.144;25.200;2022-10-31T04:24:02;100398.69;;;11.94;61.01
71149;BME280;59072;42.144;25.200;2022-10-31T04:26:27;100401.41;;;11.87;61.21
71149;BME280;59072;42.144;25.200;2022-10-31T04:28:52;100385.38;;;11.87;61.18
71149;BME280;59072;42.144;25.200;2022-10-31T04:31:18;100407.97;;;11.84;61.90
71149;BME280;59072;42.144;25.200;2022-10-31T04:33:43;100410.97;;;11.70;63.20
71149;BME280;59072;42.144;25.200;2022-10-31T04:36:09;100409.06;;;11.52;63.23
71149;BME280;59072;42.144;25.200;2022-10-31T04:38:34;100397.56;;;11.51;62.84
71149;BME280;59072;42.144;25.200;2022-10-31T04:41:00;100402.31;;;11.49;63.49
71149;BME280;59072;42.144;25.200;2022-10-31T04:43:25;100403.09;;;11.50;63.48
71149;BME280;59072;42.144;25.200;2022-10-31T04:45:50;100410.97;;;11.70;63.12
71149;BME280;59072;42.144;25.200;2022-10-31T04:48:16;100404.91;;;11.81;62.48
71149;BME280;59072;42.144;25.200;2022-10-31T04:50:42;100419.25;;;11.61;63.98
71149;BME280;59072;42.144;25.200;2022-10-31T04:53:08;100424.75;;;11.66;63.84
71149;BME280;59072;42.144;25.200;2022-10-31T04:55:35;100409.50;;;11.49;65.12
71149;BME280;59072;42.144;25.200;2022-10-31T04:58:01;100437.63;;;11.83;65.11
71149;BME280;59072;42.144;25.200;2022-10-31T05:00:26;100447.78;;;11.99;62.43
71149;BME280;59072;42.144;25.200;2022-10-31T05:02:57;100444.94;;;11.94;62.81
71149;BME280;59072;42.144;25.200;2022-10-31T05:05:28;100443.03;;;11.70;63.46
71149;BME280;59072;42.144;25.200;2022-10-31T05:07:54;100455.19;;;11.65;64.15
71149;BME280;59072;42.144;25.200;2022-10-31T05:10:22;100465.03;;;12.03;63.84
71149;BME280;59072;42.144;25.200;2022-10-31T05:12:50;100443.19;;;12.06;62.91
71149;BME280;59072;42.144;25.200;2022-10-31T05:15:16;100458.19;;;12.08;63.35
71149;BME280;59072;42.144;25.200;2022-10-31T05:17:42;100448.81;;;12.42;62.76
71149;BME280;59072;42.144;25.200;2022-10-31T05:20:07;100450.81;;;12.28;62.93
71149;BME280;59072;42.144;25.200;2022-10-31T05:22:33;100434.75;;;11.78;64.80
71149;BME280;59072;42.144;25.200;2022-10-31T05:24:58;100461.41;;;11.91;64.76
71149;BME280;59072;42.144;25.200;2022-10-31T05:27:24;100479.88;;;11.93;65.29
71149;BME280;59072;42.144;25.200;2022-10-31T05:29:49;100460.88;;;12.08;63.51
71149;BME280;59072;42.144;25.200;2022-10-31T05:32:15;100468.88;;;12.33;63.75
71149;BME280;59072;42.144;25.200;2022-10-31T05:34:40;100461.38;;;12.41;63.34
71149;BME280;59072;42.144;25.200;2022-10-31T05:37:06;100463.63;;;12.63;62.71
71149;BME280;59072;42.144;25.200;2022-10-31T05:39:31;100458.47;;;12.43;63.56
71149;BME280;59072;42.144;25.200;2022-10-31T05:41:56;100470.44;;;12.40;64.47
71149;BME280;59072;42.144;25.200;2022-10-31T05:44:22;100473.44;;;12.51;63.77
71149;BME280;59072;42.144;25.200;2022-10-31T05:46:47;100479.72;;;12.56;63.06
71149;BME280;59072;42.144;25.200;2022-10-31T05:49:13;100477.44;;;12.60;63.39
71149;BME280;59072;42.144;25.200;2022-10-31T05:51:38;100507.00;;;12.21;64.65
71149;BME280;59072;42.144;25.200;2022-10-31T05:54:04;100504.84;;;12.12;65.33
71149;BME280;59072;42.144;25.200;2022-10-31T05:56:29;100504.72;;;12.25;65.06
71149;BME280;59072;42.144;25.200;2022-10-31T05:58:55;100509.31;;;12.18;65.43
71149;BME280;59072;42.144;25.200;2022-10-31T06:01:20;100507.84;;;12.22;66.13
71149;BME280;59072;42.144;25.200;2022-10-31T06:03:45;100512.28;;;12.53;65.12
71149;BME280;59072;42.144;25.200;2022-10-31T06:06:11;100509.78;;;12.77;64.57
71149;BME280;59072;42.144;25.200;2022-10-31T06:08:37;100518.63;;;12.59;65.48
71149;BME280;59072;42.144;25.200;2022-10-31T06:11:02;100522.94;;;12.97;65.00
71149;BME280;59072;42.144;25.200;2022-10-31T06:13:27;100523.47;;;12.87;65.84
71149;BME280;59072;42.144;25.200;2022-10-31T06:15:53;100530.97;;;13.15;64.27
71149;BME280;59072;42.144;25.200;2022-10-31T06:18:18;100533.00;;;13.20;64.33
71149;BME280;59072;42.144;25.200;2022-10-31T06:20:44;100529.16;;;13.27;63.78
71149;BME280;59072;42.144;25.200;2022-10-31T06:23:09;100544.66;;;13.44;63.25
71149;BME280;59072;42.144;25.200;2022-10-31T06:25:35;100531.84;;;13.09;64.44
71149;BME280;59072;42.144;25.200;2022-10-31T06:28:00;100540.66;;;13.16;64.77
71149;BME280;59072;42.144;25.200;2022-10-31T06:30:26;100551.16;;;13.18;65.37
71149;BME280;59072;42.144;25.200;2022-10-31T06:32:51;100530.53;;;13.18;65.01
71149;BME280;59072;42.144;25.200;2022-10-31T06:35:17;100541.31;;;13.49;64.76
71149;BME280;59072;42.144;25.200;2022-10-31T06:37:43;100552.16;;;13.54;64.10
71149;BME280;59072;42.144;25.200;2022-10-31T06:40:15;100533.03;;;13.50;63.92
71149;BME280;59072;42.144;25.200;2022-10-31T06:42:40;100544.72;;;13.56;64.56
71149;BME280;59072;42.144;25.200;2022-10-31T06:45:06;100538.22;;;13.63;63.72
71149;BME280;59072;42.144;25.200;2022-10-31T06:47:32;100537.16;;;13.64;63.66
71149;BME280;59072;42.144;25.200;2022-10-31T06:49:57;100538.22;;;13.63;63.85
71149;BME280;59072;42.144;25.200;2022-10-31T06:52:22;100551.03;;;13.61;62.73
71149;BME280;59072;42.144;25.200;2022-10-31T06:54:48;100539.84;;;13.64;62.75
71149;BME280;59072;42.144;25.200;2022-10-31T06:57:14;100546.47;;;13.92;62.42
71149;BME280;59072;42.144;25.200;2022-10-31T06:59:39;100559.69;;;14.17;62.08
71149;BME280;59072;42.144;25.200;2022-10-31T07:02:04;100557.72;;;14.36;61.29
71149;BME280;59072;42.144;25.200;2022-10-31T07:04:30;100565.44;;;14.21;61.75
71149;BME280;59072;42.144;25.200;2022-10-31T07:06:55;100566.28;;;14.45;61.67
71149;BME280;59072;42.144;25.200;2022-10-31T07:09:21;100548.00;;;14.77;60.61
71149;BME280;59072;42.144;25.200;2022-10-31T07:11:47;100558.31;;;15.21;58.87
71149;BME280;59072;42.144;25.200;2022-10-31T07:14:12;100560.22;;;15.49;58.15
71149;BME280;59072;42.144;25.200;2022-10-31T07:16:38;100542.16;;;15.61;57.13
71149;BME280;59072;42.144;25.200;2022-10-31T07:19:03;100531.81;;;15.82;57.43
71149;BME280;59072;42.144;25.200;2022-10-31T07:21:28;100541.03;;;16.20;56.23
71149;BME280;59072;42.144;25.200;2022-10-31T07:23:54;100546.91;;;16.51;55.25
71149;BME280;59072;42.144;25.200;2022-10-31T07:26:19;100553.81;;;16.80;54.73
71149;BME280;59072;42.144;25.200;2022-10-31T07:28:48;100541.28;;;17.08;53.53
71149;BME280;59072;42.144;25.200;2022-10-31T07:31:13;100549.66;;;17.34;54.12
71149;BME280;59072;42.144;25.200;2022-10-31T07:33:39;100557.78;;;17.61;52.43
71149;BME280;59072;42.144;25.200;2022-10-31T07:36:04;100533.78;;;17.59;52.94
71149;BME280;59072;42.144;25.200;2022-10-31T07:38:30;100554.53;;;18.13;52.13
71149;BME280;59072;42.144;25.200;2022-10-31T07:40:55;100535.63;;;18.45;50.06
71149;BME280;59072;42.144;25.200;2022-10-31T07:43:21;100550.31;;;18.60;50.00
71149;BME280;59072;42.144;25.200;2022-10-31T07:45:51;100552.91;;;18.82;48.71
71149;BME280;59072;42.144;25.200;2022-10-31T07:48:17;100549.19;;;18.98;48.41
71149;BME280;59072;42.144;25.200;2022-10-31T07:50:42;100533.63;;;19.26;48.56
71149;BME280;59072;42.144;25.200;2022-10-31T07:53:10;100563.28;;;19.74;46.66
71149;BME280;59072;42.144;25.200;2022-10-31T07:55:36;100554.09;;;19.90;46.60
71149;BME280;59072;42.144;25.200;2022-10-31T07:58:07;100540.56;;;20.16;47.27
71149;BME280;59072;42.144;25.200;2022-10-31T08:00:34;100546.78;;;20.26;45.59
71149;BME280;59072;42.144;25.200;2022-10-31T08:03:02;100568.19;;;20.54;44.63
71149;BME280;59072;42.144;25.200;2022-10-31T08:05:29;100553.28;;;20.41;44.99
71149;BME280;59072;42.144;25.200;2022-10-31T08:07:55;100564.91;;;20.77;44.68
71149;BME280;59072;42.144;25.200;2022-10-31T08:10:21;100563.97;;;21.23;43.45
71149;BME280;59072;42.144;25.200;2022-10-31T08:12:46;100565.34;;;21.15;43.55
71149;BME280;59072;42.144;25.200;2022-10-31T08:15:12;100564.72;;;21.34;43.44
71149;BME280;59072;42.144;25.200;2022-10-31T08:17:38;100552.56;;;21.21;42.82
71149;BME280;59072;42.144;25.200;2022-10-31T08:20:04;100554.41;;;21.31;43.03
71149;BME280;59072;42.144;25.200;2022-10-31T08:22:30;100554.94;;;21.33;42.78
71149;BME280;59072;42.144;25.200;2022-10-31T08:24:56;100545.91;;;21.53;42.28
71149;BME280;59072;42.144;25.200;2022-10-31T08:27:21;100564.91;;;21.58;42.53
71149;BME280;59072;42.144;25.200;2022-10-31T08:29:47;100554.94;;;21.38;43.33
71149;BME280;59072;42.144;25.200;2022-10-31T08:32:12;100566.25;;;21.55;43.03
71149;BME280;59072;42.144;25.200;2022-10-31T08:34:38;100562.66;;;21.70;42.42
71149;BME280;59072;42.144;25.200;2022-10-31T08:37:03;100548.16;;;21.85;42.23
71149;BME280;59072;42.144;25.200;2022-10-31T08:39:29;100555.78;;;22.17;42.66
71149;BME280;59072;42.144;25.200;2022-10-31T08:41:54;100552.22;;;22.22;41.66
71149;BME280;59072;42.144;25.200;2022-10-31T08:44:20;100559.84;;;22.20;41.19
71149;BME280;59072;42.144;25.200;2022-10-31T08:46:46;100543.63;;;22.10;41.65
71149;BME280;59072;42.144;25.200;2022-10-31T08:49:11;100558.66;;;22.36;41.16
71149;BME280;59072;42.144;25.200;2022-10-31T08:51:36;100562.38;;;22.45;41.13
71149;BME280;59072;42.144;25.200;2022-10-31T08:54:02;100564.09;;;22.31;42.00
71149;BME280;59072;42.144;25.200;2022-10-31T08:56:27;100557.50;;;22.42;40.47
71149;BME280;59072;42.144;25.200;2022-10-31T08:58:53;100562.47;;;22.64;39.49
71149;BME280;59072;42.144;25.200;2022-10-31T09:01:18;100562.75;;;22.87;39.50
71149;BME280;59072;42.144;25.200;2022-10-31T09:03:44;100565.81;;;23.29;38.92
71149;BME280;59072;42.144;25.200;2022-10-31T09:06:09;100559.88;;;23.26;37.66
71149;BME280;59072;42.144;25.200;2022-10-31T09:08:35;100556.72;;;23.19;38.08
71149;BME280;59072;42.144;25.200;2022-10-31T09:11:01;100572.03;;;23.34;37.84
71149;BME280;59072;42.144;25.200;2022-10-31T09:13:26;100562.19;;;23.14;37.04
71149;BME280;59072;42.144;25.200;2022-10-31T09:15:52;100564.75;;;23.30;37.61
71149;BME280;59072;42.144;25.200;2022-10-31T09:18:20;100559.81;;;23.70;37.81
71149;BME280;59072;42.144;25.200;2022-10-31T09:20:47;100573.44;;;24.08;36.81
71149;BME280;59072;42.144;25.200;2022-10-31T09:23:16;100571.75;;;24.12;36.60
71149;BME280;59072;42.144;25.200;2022-10-31T09:25:42;100566.28;;;24.44;36.43
71149;BME280;59072;42.144;25.200;2022-10-31T09:28:10;100564.59;;;24.16;35.69
71149;BME280;59072;42.144;25.200;2022-10-31T09:30:36;100561.59;;;24.31;35.98
71149;BME280;59072;42.144;25.200;2022-10-31T09:33:04;100557.78;;;23.99;36.52
71149;BME280;59072;42.144;25.200;2022-10-31T09:35:29;100570.28;;;24.00;36.57
71149;BME280;59072;42.144;25.200;2022-10-31T09:37:59;100561.69;;;23.93;36.40
71149;BME280;59072;42.144;25.200;2022-10-31T09:40:37;100564.75;;;24.05;36.62
71149;BME280;59072;42.144;25.200;2022-10-31T09:51:34;100546.25;;;24.54;35.10
71149;BME280;59072;42.144;25.200;2022-10-31T09:54:08;100548.69;;;24.37;35.07
71149;BME280;59072;42.144;25.200;2022-10-31T09:56:36;100537.31;;;24.49;34.83
71149;BME280;59072;42.144;25.200;2022-10-31T09:59:10;100544.25;;;24.41;34.96
71149;BME280;59072;42.144;25.200;2022-10-31T10:01:48;100537.59;;;24.47;35.06
71149;BME280;59072;42.144;25.200;2022-10-31T10:18:59;100542.63;;;24.26;34.83
71149;BME280;59072;42.144;25.200;2022-10-31T10:21:36;100541.00;;;23.92;35.61
71149;BME280;59072;42.144;25.200;2022-10-31T10:27:05;100522.53;;;23.89;36.63
71149;BME280;59072;42.144;25.200;2022-10-31T10:29:45;100526.06;;;23.71;36.04
71149;BME280;59072;42.144;25.200;2022-10-31T10:32:21;100512.88;;;23.59;37.39
71149;BME280;59072;42.144;25.200;2022-10-31T10:34:51;100502.63;;;23.70;37.74
71149;BME280;59072;42.144;25.200;2022-10-31T10:39:54;100517.47;;;23.82;37.07
71149;BME280;59072;42.144;25.200;2022-10-31T10:42:21;100518.84;;;23.80;37.98
71149;BME280;59072;42.144;25.200;2022-10-31T10:45:18;100494.34;;;23.61;37.63
71149;BME280;59072;42.144;25.200;2022-10-31T10:50:46;100498.75;;;23.95;37.38
71149;BME280;59072;42.144;25.200;2022-10-31T10:53:44;100504.31;;;24.64;35.25
71149;BME280;59072;42.144;25.200;2022-10-31T10:56:42;100503.28;;;24.46;34.55
71149;BME280;59072;42.144;25.200;2022-10-31T10:59:13;100500.50;;;24.79;34.55
71149;BME280;59072;42.144;25.200;2022-10-31T11:01:41;100501.69;;;24.86;34.06
71149;BME280;59072;42.144;25.200;2022-10-31T11:04:30;100509.97;;;24.67;34.31
71149;BME280;59072;42.144;25.200;2022-10-31T11:07:16;100504.13;;;24.74;34.58
71149;BME280;59072;42.144;25.200;2022-10-31T11:09:41;100488.88;;;24.73;34.37
71149;BME280;59072;42.144;25.200;2022-10-31T11:12:10;100493.81;;;24.99;34.40
71149;BME280;59072;42.144;25.200;2022-10-31T11:14:48;100476.69;;;25.57;32.92
71149;BME280;59072;42.144;25.200;2022-10-31T11:17:25;100476.09;;;26.05;31.78
71149;BME280;59072;42.144;25.200;2022-10-31T11:22:43;100478.28;;;26.26;31.23
71149;BME280;59072;42.144;25.200;2022-10-31T11:25:25;100468.75;;;26.15;31.44
71149;BME280;59072;42.144;25.200;2022-10-31T11:28:01;100486.38;;;26.71;30.88
71149;BME280;59072;42.144;25.200;2022-10-31T11:30:27;100481.75;;;26.40;31.80
71149;BME280;59072;42.144;25.200;2022-10-31T11:32:53;100471.81;;;27.11;31.70
71149;BME280;59072;42.144;25.200;2022-10-31T11:35:20;100467.00;;;27.16;30.26
71149;BME280;59072;42.144;25.200;2022-10-31T11:37:49;100476.66;;;27.14;29.75
71149;BME280;59072;42.144;25.200;2022-10-31T11:40:24;100467.50;;;27.36;28.86
71149;BME280;59072;42.144;25.200;2022-10-31T11:42:52;100469.75;;;27.25;29.61
71149;BME280;59072;42.144;25.200;2022-10-31T11:45:29;100462.94;;;26.96;29.72
71149;BME280;59072;42.144;25.200;2022-10-31T11:47:56;100460.19;;;27.05;29.05
71149;BME280;59072;42.144;25.200;2022-10-31T11:50:28;100467.81;;;27.78;28.69
71149;BME280;59072;42.144;25.200;2022-10-31T11:52:56;100453.50;;;28.28;27.04
71149;BME280;59072;42.144;25.200;2022-10-31T11:57:56;100461.31;;;28.09;27.11
71149;BME280;59072;42.144;25.200;2022-10-31T12:02:50;100468.16;;;28.71;26.83
71149;BME280;59072;42.144;25.200;2022-10-31T12:05:23;100447.66;;;28.98;26.36
71149;BME280;59072;42.144;25.200;2022-10-31T12:07:51;100471.44;;;29.36;26.30
71149;BME280;59072;42.144;25.200;2022-10-31T12:10:19;100464.66;;;29.54;26.72
71149;BME280;59072;42.144;25.200;2022-10-31T12:12:59;100469.16;;;28.66;26.34
71149;BME280;59072;42.144;25.200;2022-10-31T12:15:33;100473.69;;;28.62;26.79
71149;BME280;59072;42.144;25.200;2022-10-31T12:26:16;100443.88;;;28.13;28.22
71149;BME280;59072;42.144;25.200;2022-10-31T12:31:47;100458.47;;;27.44;29.68
71149;BME280;59072;42.144;25.200;2022-10-31T12:40:31;100446.72;;;29.36;26.28
71149;BME280;59072;42.144;25.200;2022-10-31T12:46:03;100434.56;;;29.24;26.88
71149;BME280;59072;42.144;25.200;2022-10-31T13:04:47;100438.19;;;29.71;26.54
71149;BME280;59072;42.144;25.200;2022-10-31T13:10:05;100442.84;;;29.37;25.59
71149;BME280;59072;42.144;25.200;2022-10-31T13:12:36;100441.53;;;29.22;27.36
71149;BME280;59072;42.144;25.200;2022-10-31T13:15:14;100429.63;;;28.88;26.10
71149;BME280;59072;42.144;25.200;2022-10-31T13:17:45;100444.06;;;28.47;27.71
71149;BME280;59072;42.144;25.200;2022-10-31T13:22:42;100438.66;;;28.29;27.41
71149;BME280;59072;42.144;25.200;2022-10-31T13:30:22;100438.22;;;32.19;22.20
71149;BME280;59072;42.144;25.200;2022-10-31T13:33:11;100426.81;;;30.18;24.56
71149;BME280;59072;42.144;25.200;2022-10-31T13:38:40;100428.94;;;28.70;26.92
71149;BME280;59072;42.144;25.200;2022-10-31T13:44:21;100433.09;;;28.08;27.89
71149;BME280;59072;42.144;25.200;2022-10-31T13:46:49;100422.84;;;27.79;28.39
71149;BME280;59072;42.144;25.200;2022-10-31T13:57:16;100414.28;;;26.84;30.32
71149;BME280;59072;42.144;25.200;2022-10-31T13:59:49;100429.75;;;26.80;30.79
71149;BME280;59072;42.144;25.200;2022-10-31T14:02:16;100427.75;;;26.55;30.95
71149;BME280;59072;42.144;25.200;2022-10-31T14:04:51;100427.72;;;26.46;31.81
71149;BME280;59072;42.144;25.200;2022-10-31T14:07:20;100420.69;;;26.22;31.15
71149;BME280;59072;42.144;25.200;2022-10-31T14:12:42;100417.59;;;26.55;30.82
71149;BME280;59072;42.144;25.200;2022-10-31T14:17:55;100445.88;;;28.34;28.52
71149;BME280;59072;42.144;25.200;2022-10-31T14:22:57;100431.09;;;27.27;30.06
71149;BME280;59072;42.144;25.200;2022-10-31T14:25:34;100425.53;;;26.65;30.56
71149;BME280;59072;42.144;25.200;2022-10-31T14:28:19;100426.69;;;26.33;31.92
71149;BME280;59072;42.144;25.200;2022-10-31T14:30:53;100433.50;;;25.82;34.28
71149;BME280;59072;42.144;25.200;2022-10-31T14:33:19;100439.75;;;25.37;35.57
71149;BME280;59072;42.144;25.200;2022-10-31T14:36:10;100443.09;;;24.98;36.42
71149;BME280;59072;42.144;25.200;2022-10-31T14:38:50;100440.38;;;24.70;35.05
71149;BME280;59072;42.144;25.200;2022-10-31T14:44:37;100446.53;;;24.34;37.42
71149;BME280;59072;42.144;25.200;2022-10-31T14:50:09;100441.16;;;24.01;37.25
71149;BME280;59072;42.144;25.200;2022-10-31T14:52:38;100437.28;;;23.89;37.93
71149;BME280;59072;42.144;25.200;2022-10-31T14:55:07;100436.06;;;23.81;37.50
71149;BME280;59072;42.144;25.200;2022-10-31T14:57:38;100436.88;;;23.62;38.60
71149;BME280;59072;42.144;25.200;2022-10-31T15:00:16;100432.09;;;23.35;38.94
71149;BME280;59072;42.144;25.200;2022-10-31T15:05:27;100445.72;;;23.16;39.72
71149;BME280;59072;42.144;25.200;2022-10-31T15:07:55;100450.28;;;23.02;40.56
71149;BME280;59072;42.144;25.200;2022-10-31T15:10:28;100433.63;;;22.84;40.88
71149;BME280;59072;42.144;25.200;2022-10-31T15:13:33;100459.19;;;22.83;41.86
71149;BME280;59072;42.144;25.200;2022-10-31T15:15:59;100436.09;;;22.62;42.60